Route Details

Aircraft Information
Group: Boeing 767
Types: B762, B763
Route Data
Distance: 2425nm
Duration: 6h 29m
Origin METAR: KRFD 152354Z 00000KT 10SM OVC095 23/17 A3008 RMK AO2 SLP184 T02330167 10267 20233 50002 $
Dest. METAR: PANC 152353Z 13003KT 10SM FEW025 BKN075 BKN090 16/11 A2982 RMK AO2 SLP100 PRESENT WX VCSH E 60000 T01610111 10161 20133 51001
Freight Data
(for Aug 16, 2022)
Load Factor:
35%
Manifested Cargo: 44,164lbs
Financial History
Total Freight: 1,717,855lbs
Average Load: 0lbs/flt
Fuel Used: 1,277,100lbs
Avg. Fuel Used: 0lbs/flt
Fuel Expense: $886,606
Avg. Fuel Expense: $0
Avg. Fuel Cost: $0/lbs
Total Gross Income: $3,752,457
Pilot Pay: $3,052
Total Expenses: $451,211
Total Revenue: $2,390,000
Average Revenue: $0

Capitol Logistics 855




KRFD
Chicago/Rockford International Airport
Rockford, Illinois
PANC
Ted Stevens Anchorage International Airport
Anchorage, Alaska

Activity Log

Date Flight Route Aircraft Duration
07/24/2022 CPX855 Not Available B763 6h 45m
07/16/2022 CPX855 Not Available B763 5h 58m
02/26/2021 CPX316 ODI J36 GEP MOT J483 VLN J475 YWV NCA11 REMBY WITTI4 B763 6h 45m
02/13/2021 CPX316 JVL DLL J538 VBI YQD PETMA Q963 TULAG YOJ J513 YYE J515 YXY NCA13 TMSON WITTI4 B763 5h 51m
08/04/2020 CPX316 KRFD/07 RFD DLL KG84K DLH J538 VBI YQD PETMA Q963 TULAG YYE 60N130W JAGIT NCA13 TMSON PTERS3 PANC/I15 B763 6h 28m
07/03/2020 CPX316 ODI J36 GEP MOT J483 VLN J475 YWV NCA11 REMBY WITTI4 B763 6h 04m
04/20/2020 CPX316 BAE J89 YWG J596 YQD J513 YVC Q963 YMM J513 YYE J515 YXY NCA13 TMSON PTERS3 B763 7h 08m
02/26/2020 CPX316 BAE J89 YWG J596 YQD NCA13 TMSON WITTI4 B763 6h 33m
01/25/2020 CPX316 ODI J36 GEP MOT J483 VLN J475 YWV NCA11 REMBY WITTI4 B763 6h 17m
11/12/2019 CPX316 BAE J89 YWG/N0453F340 J596 YQD NCA13 KESDA/N0451F360 NCA13 TMSON WITTI4 B763 6h 58m
10/22/2019 CPX316 MCW J25 GEP J36 FAR YWG J596 YQD/N0459F360 NCA13 TMSON WITTI4 B763 6h 34m
08/03/2019 CPX316 ODI J36 GEP MOT J483 VLN J475 YWV NCA11 REMBY WITTI4 B763 6h 08m
07/07/2019 CPX316 ODI J36 GEP MOT J483 VLN J475 YWV NCA11 REMBY WITTI4 B763 6h 00m
02/26/2019 CPX316 ODI J36 GEP MOT J483 VLN J475 YWV NCA11 REMBY WITTI4 B763 6h 20m
02/08/2019 CPX316 JVL DLL J538 HLDOL/N0460F340 J538 VBI YQD NCA13 DUSOB/N0449F360 NCA13 TMSON WITTI4 B763 6h 01m
12/30/2018 CPX504 ODI J36 GEP MOT J483 VLN J475 YWV NCA11 REMBY WITTI4 B763 6h 24m
12/19/2018 CPX504 JVL DLL J538 VBI YQD NCA13 TMSON B763 6h 16m
12/18/2018 CPX502 ODI J36 GEP MOT J483 VLN J475 YWV NCA11 NUBEG NCA11 REMBY B763 6h 13m